createdAt,value
2022-08-19T00:01:38.667Z,69.82
2022-08-19T00:04:08.651Z,71.17
2022-08-19T00:06:37.608Z,70.56
2022-08-19T00:09:06.900Z,70.63
2022-08-19T00:11:34.546Z,71.21
2022-08-19T00:14:01.298Z,71.58
2022-08-19T00:16:28.318Z,72.19
2022-08-19T00:18:55.712Z,71.76
2022-08-19T00:21:24.055Z,71.59
2022-08-19T00:23:50.888Z,71.52
2022-08-19T00:26:17.518Z,72.01
2022-08-19T00:28:44.148Z,72.04
2022-08-19T00:31:11.513Z,71.56
2022-08-19T00:33:38.138Z,70.93
2022-08-19T00:36:08.045Z,70.62
2022-08-19T00:38:38.086Z,70.85
2022-08-19T00:41:09.006Z,70.51
2022-08-19T00:43:35.840Z,70.41
2022-08-19T00:46:02.698Z,70.80
2022-08-19T00:48:29.507Z,70.17
2022-08-19T00:50:56.259Z,71.13
2022-08-19T00:53:27.043Z,71.82
2022-08-19T00:55:57.676Z,71.42
2022-08-19T00:58:29.843Z,71.07
2022-08-19T01:00:56.644Z,71.33
2022-08-19T01:03:23.742Z,71.45
2022-08-19T01:05:52.880Z,70.95
2022-08-19T01:08:20.379Z,70.92
2022-08-19T01:10:57.442Z,71.81
2022-08-19T01:13:27.578Z,71.72
2022-08-19T01:16:07.303Z,71.61
2022-08-19T01:18:38.962Z,71.99
2022-08-19T01:21:17.009Z,71.51
2022-08-19T01:23:44.965Z,71.84
2022-08-19T01:26:18.720Z,72.26
2022-08-19T01:28:48.112Z,71.95
2022-08-19T01:31:26.432Z,71.98
2022-08-19T01:33:56.400Z,72.25
2022-08-19T01:36:29.608Z,73.39
2022-08-19T01:38:57.488Z,73.37
2022-08-19T01:41:24.041Z,73.44
2022-08-19T01:44:13.665Z,73.24
2022-08-19T01:46:38.888Z,73.11
2022-08-19T01:49:06.315Z,73.10
2022-08-19T01:51:39.965Z,73.47
2022-08-19T01:54:11.597Z,73.47
2022-08-19T01:56:38.450Z,73.64
2022-08-19T01:59:11.528Z,73.55
2022-08-19T02:01:38.416Z,72.98
2022-08-19T02:04:05.106Z,72.51
2022-08-19T02:06:31.755Z,72.69
2022-08-19T02:08:58.352Z,72.58
2022-08-19T02:11:28.757Z,74.09
2022-08-19T02:13:56.401Z,75.29
2022-08-19T02:16:23.379Z,74.31
2022-08-19T02:18:50.616Z,74.11
2022-08-19T02:21:22.759Z,74.33
2022-08-19T02:23:51.225Z,74.99
2022-08-19T02:26:18.727Z,74.46
2022-08-19T02:28:45.782Z,74.31
2022-08-19T02:31:19.468Z,73.94
2022-08-19T02:33:47.063Z,73.56
2022-08-19T02:36:15.538Z,73.56
2022-08-19T02:38:43.322Z,73.48
2022-08-19T02:41:20.757Z,73.43
2022-08-19T02:44:26.626Z,73.59
2022-08-19T02:46:36.326Z,73.87
2022-08-19T02:49:08.234Z,73.80
2022-08-19T02:51:38.827Z,73.43
2022-08-19T02:54:06.642Z,73.13
2022-08-19T02:56:36.535Z,73.12
2022-08-19T02:59:04.083Z,73.46
2022-08-19T03:01:33.508Z,74.11
2022-08-19T03:04:03.460Z,73.93
2022-08-19T03:06:31.273Z,73.71
2022-08-19T03:08:58.326Z,73.61
2022-08-19T03:11:28.367Z,73.59
2022-08-19T03:13:55.344Z,73.48
2022-08-19T03:16:24.391Z,73.20
2022-08-19T03:18:52.010Z,73.15
2022-08-19T03:21:22.205Z,73.21
2022-08-19T03:23:48.957Z,73.23
2022-08-19T03:26:17.075Z,73.46
2022-08-19T03:28:49.483Z,73.29
2022-08-19T03:31:41.730Z,74.94
2022-08-19T03:34:13.521Z,75.88
2022-08-19T03:36:40.765Z,75.68
2022-08-19T03:39:07.409Z,77.77
2022-08-19T03:41:45.152Z,77.27
2022-08-19T03:44:19.294Z,77.44
2022-08-19T03:46:55.509Z,78.53
2022-08-19T03:49:27.205Z,78.62
2022-08-19T03:51:56.917Z,78.13
2022-08-19T03:54:25.310Z,78.40
2022-08-19T03:56:54.050Z,77.54
2022-08-19T03:59:31.020Z,79.97
2022-08-19T04:02:00.691Z,79.18
2022-08-19T04:04:29.308Z,78.16
2022-08-19T04:06:57.085Z,77.62
2022-08-19T04:09:23.752Z,77.02
2022-08-19T04:11:53.558Z,78.19
2022-08-19T04:14:23.195Z,77.76
2022-08-19T04:17:15.187Z,77.00
2022-08-19T04:19:42.217Z,76.81
2022-08-19T04:22:08.807Z,76.76
2022-08-19T04:24:36.036Z,77.36
2022-08-19T04:27:03.289Z,77.21
2022-08-19T04:29:30.389Z,76.83
2022-08-19T04:31:57.807Z,78.11
2022-08-19T04:34:26.290Z,78.92
2022-08-19T04:36:55.047Z,78.55
2022-08-19T04:39:28.640Z,78.66
2022-08-19T04:41:55.277Z,78.64
2022-08-19T04:44:22.290Z,78.59
2022-08-19T04:46:51.207Z,78.07
2022-08-19T04:49:23.473Z,78.46
2022-08-19T04:51:52.535Z,77.73
2022-08-19T04:54:37.686Z,78.01
2022-08-19T04:57:10.735Z,78.53
2022-08-19T04:59:39.546Z,77.44
2022-08-19T05:02:08.486Z,77.22
2022-08-19T05:04:35.316Z,76.31
2022-08-19T05:07:02.594Z,75.70
2022-08-19T05:09:52.635Z,75.85
2022-08-19T05:12:18.273Z,75.43
2022-08-19T05:14:45.295Z,75.23
2022-08-19T05:17:27.238Z,74.79
2022-08-19T05:19:56.270Z,74.18
2022-08-19T05:22:22.832Z,74.10
2022-08-19T05:25:11.196Z,73.75
2022-08-19T05:27:36.535Z,73.11
2022-08-19T05:30:03.865Z,72.84
2022-08-19T05:32:31.607Z,73.62
2022-08-19T05:34:58.244Z,72.84
2022-08-19T05:37:24.956Z,72.08
2022-08-19T05:39:51.836Z,72.06
2022-08-19T05:42:19.074Z,71.54
2022-08-19T05:44:45.609Z,70.78
2022-08-19T05:47:14.158Z,72.29
2022-08-19T05:49:40.737Z,72.13
2022-08-19T05:52:11.075Z,71.10
2022-08-19T05:54:39.575Z,71.29
2022-08-19T05:57:06.334Z,70.92
2022-08-19T05:59:33.201Z,70.43
2022-08-19T06:02:00.582Z,69.64
2022-08-19T06:04:27.259Z,69.94
2022-08-19T06:06:54.630Z,69.54
2022-08-19T06:09:22.922Z,68.43
2022-08-19T06:11:56.692Z,68.97
2022-08-19T06:14:28.237Z,69.16
2022-08-19T06:16:55.361Z,69.23
2022-08-19T06:19:26.671Z,68.80
2022-08-19T06:21:54.256Z,70.67
2022-08-19T06:24:24.238Z,70.97
2022-08-19T06:26:55.649Z,70.79
2022-08-19T06:29:25.769Z,70.62
2022-08-19T06:31:55.518Z,70.19
2022-08-19T06:34:22.135Z,69.54
2022-08-19T06:36:50.718Z,68.49
2022-08-19T06:39:26.839Z,69.57
2022-08-19T06:41:58.996Z,68.89
2022-08-19T06:44:31.873Z,69.00
2022-08-19T06:46:58.746Z,69.43
2022-08-19T06:49:25.534Z,69.28
2022-08-19T06:51:52.294Z,68.60
2022-08-19T06:54:20.138Z,68.19
2022-08-19T06:56:47.526Z,67.87
2022-08-19T06:59:20.489Z,67.42
2022-08-19T07:01:50.268Z,66.88
2022-08-19T07:04:27.727Z,65.48
2022-08-19T07:07:00.679Z,66.79
2022-08-19T07:09:57.132Z,65.03
2022-08-19T07:12:30.178Z,66.25
2022-08-19T07:14:58.249Z,65.62
2022-08-19T07:17:24.870Z,64.59
2022-08-19T07:19:51.818Z,64.77
2022-08-19T07:22:22.494Z,62.42
2022-08-19T07:24:51.937Z,62.78
2022-08-19T07:27:19.313Z,61.11
2022-08-19T07:29:56.044Z,62.00
2022-08-19T07:32:25.727Z,60.17
2022-08-19T07:34:52.372Z,60.73
2022-08-19T07:37:19.079Z,60.88
2022-08-19T07:39:45.722Z,60.08
2022-08-19T07:42:13.259Z,59.44
2022-08-19T07:47:06.891Z,58.44
2022-08-19T07:49:38.671Z,57.41
2022-08-19T07:52:09.126Z,56.54
2022-08-19T07:54:38.612Z,55.64
2022-08-19T07:57:05.963Z,55.89
2022-08-19T07:59:33.069Z,57.71
2022-08-19T08:01:59.806Z,56.97
2022-08-19T08:04:27.675Z,56.83
2022-08-19T08:06:54.664Z,56.21
2022-08-19T08:09:34.713Z,56.57
2022-08-19T08:12:32.517Z,56.90
2022-08-19T08:14:55.941Z,56.99
2022-08-19T08:17:30.899Z,57.17
2022-08-19T08:20:14.137Z,58.49
2022-08-19T08:22:47.772Z,57.91
2022-08-19T08:25:19.019Z,58.08
2022-08-19T08:27:48.147Z,58.16
2022-08-19T08:30:24.999Z,57.78
2022-08-19T08:32:52.295Z,58.15
2022-08-19T08:35:22.313Z,58.07
2022-08-19T08:37:51.309Z,58.49
2022-08-19T08:40:39.691Z,58.08
2022-08-19T08:43:44.922Z,57.85
2022-08-19T08:46:31.116Z,59.25
2022-08-19T08:49:06.763Z,59.75
2022-08-19T08:51:38.097Z,58.55
2022-08-19T08:54:07.337Z,58.20
2022-08-19T08:56:39.480Z,59.24
2022-08-19T08:59:11.655Z,58.80
2022-08-19T09:01:38.348Z,60.06
2022-08-19T09:04:07.867Z,59.68
2022-08-19T09:06:50.164Z,60.46
2022-08-19T09:09:34.829Z,61.50
2022-08-19T09:12:27.051Z,60.43
2022-08-19T09:15:02.463Z,59.96
2022-08-19T09:17:32.268Z,58.99
2022-08-19T09:20:09.020Z,58.66
2022-08-19T09:22:40.129Z,58.09
2022-08-19T09:25:09.424Z,57.81
2022-08-19T09:27:43.237Z,58.49
2022-08-19T09:30:23.109Z,58.69
2022-08-19T09:32:52.858Z,58.86
2022-08-19T09:35:24.327Z,59.76
2022-08-19T09:37:54.853Z,59.29
2022-08-19T09:40:25.269Z,57.83
2022-08-19T09:42:52.552Z,56.54
2022-08-19T09:45:21.609Z,57.67
2022-08-19T09:47:49.318Z,58.61
2022-08-19T09:50:16.321Z,58.26
2022-08-19T09:52:55.111Z,57.67
2022-08-19T09:55:32.053Z,57.14
2022-08-19T09:58:03.189Z,57.37
2022-08-19T10:00:30.611Z,57.93
2022-08-19T10:02:57.160Z,57.75
2022-08-19T10:05:26.872Z,56.62
2022-08-19T10:07:53.941Z,56.20
2022-08-19T10:10:23.751Z,57.47
2022-08-19T10:12:51.259Z,55.92
2022-08-19T10:15:18.000Z,56.36
2022-08-19T10:17:56.437Z,54.13
2022-08-19T10:20:23.172Z,54.87
2022-08-19T10:22:51.883Z,55.89
2022-08-19T10:25:20.018Z,57.28
2022-08-19T10:27:51.187Z,55.29
2022-08-19T10:30:18.327Z,55.76
2022-08-19T10:32:47.104Z,55.06
2022-08-19T10:35:21.703Z,54.47
2022-08-19T10:37:56.807Z,54.38
2022-08-19T10:40:24.779Z,53.74
2022-08-19T10:42:51.410Z,53.37
2022-08-19T10:45:18.291Z,52.62
2022-08-19T10:47:44.950Z,53.33
2022-08-19T10:50:12.199Z,54.34
2022-08-19T10:52:49.801Z,54.47
2022-08-19T10:55:23.871Z,53.81
2022-08-19T10:58:02.170Z,53.90
2022-08-19T11:00:29.642Z,54.32
2022-08-19T11:02:56.187Z,53.78
2022-08-19T11:05:24.499Z,53.49
2022-08-19T11:07:51.592Z,53.24
2022-08-19T11:10:21.373Z,53.63
2022-08-19T11:12:48.822Z,52.76
2022-08-19T11:15:15.747Z,53.71
2022-08-19T11:17:43.028Z,54.96
2022-08-19T11:20:11.385Z,53.74
2022-08-19T11:22:41.437Z,51.44
2022-08-19T11:25:10.287Z,50.42
2022-08-19T11:27:43.454Z,51.65
2022-08-19T11:30:13.206Z,52.53
2022-08-19T11:32:45.668Z,52.31
2022-08-19T11:35:13.937Z,51.87
2022-08-19T11:37:40.504Z,52.58
2022-08-19T11:40:08.034Z,49.43
2022-08-19T11:42:35.024Z,50.12
2022-08-19T11:45:01.630Z,52.08
2022-08-19T11:47:28.184Z,50.49
2022-08-19T11:49:55.059Z,51.62
2022-08-19T11:52:21.595Z,50.16
2022-08-19T11:54:48.420Z,49.67
2022-08-19T11:57:15.241Z,50.47
2022-08-19T11:59:41.807Z,51.38
2022-08-19T12:02:08.353Z,49.45
2022-08-19T12:04:35.726Z,49.18
2022-08-19T12:07:02.296Z,48.60
2022-08-19T12:09:31.069Z,48.76
2022-08-19T12:11:57.741Z,48.34
2022-08-19T12:14:24.389Z,49.04
2022-08-19T12:16:52.716Z,47.63
2022-08-19T12:19:21.713Z,47.30
2022-08-19T12:21:50.100Z,46.39
2022-08-19T12:24:16.870Z,47.26
2022-08-19T12:26:53.704Z,46.98
2022-08-19T12:29:23.798Z,46.27
2022-08-19T12:31:51.003Z,45.64
2022-08-19T12:34:17.729Z,46.68
2022-08-19T12:36:44.287Z,44.77
2022-08-19T12:39:11.179Z,45.91
2022-08-19T12:41:45.055Z,47.71
2022-08-19T12:44:21.211Z,45.73
2022-08-19T12:46:55.751Z,44.97
2022-08-19T12:49:52.036Z,45.98
2022-08-19T12:52:10.221Z,45.29
2022-08-19T12:54:38.210Z,44.76
2022-08-19T12:57:09.181Z,44.86
2022-08-19T12:59:36.640Z,42.82
2022-08-19T13:02:05.523Z,43.69
2022-08-19T13:04:32.521Z,43.23
2022-08-19T13:06:59.620Z,40.58
2022-08-19T13:09:26.295Z,42.19
2022-08-19T13:11:52.856Z,42.31
2022-08-19T13:14:19.552Z,43.33
2022-08-19T13:16:46.148Z,42.71
2022-08-19T13:19:12.767Z,41.92
2022-08-19T13:21:39.735Z,40.30
2022-08-19T13:24:09.452Z,42.06
2022-08-19T13:26:36.027Z,43.15
2022-08-19T13:29:02.668Z,41.94
2022-08-19T13:31:32.186Z,42.32
2022-08-19T13:33:58.764Z,42.62
2022-08-19T13:36:25.291Z,39.55
2022-08-19T13:38:51.947Z,39.78
2022-08-19T13:41:18.578Z,42.09
2022-08-19T13:43:45.293Z,41.27
2022-08-19T13:46:13.221Z,42.05
2022-08-19T13:48:39.850Z,41.25
2022-08-19T13:51:06.493Z,41.49
2022-08-19T13:53:33.162Z,40.77
2022-08-19T13:55:59.721Z,40.21
2022-08-19T13:58:26.442Z,40.30
2022-08-19T14:00:53.183Z,38.52
2022-08-19T14:03:20.025Z,39.37
2022-08-19T14:05:46.734Z,39.83
2022-08-19T14:08:13.447Z,39.11
2022-08-19T14:10:40.133Z,39.09
2022-08-19T14:13:06.809Z,40.42
2022-08-19T14:15:33.430Z,40.33
2022-08-19T14:18:00.156Z,40.48
2022-08-19T14:20:27.603Z,40.60
2022-08-19T14:22:55.490Z,39.25
2022-08-19T14:25:27.517Z,38.88
2022-08-19T14:27:55.098Z,39.45
2022-08-19T14:30:27.866Z,38.56
2022-08-19T14:32:59.647Z,39.00
2022-08-19T14:35:28.607Z,36.91
2022-08-19T14:37:55.983Z,36.85
2022-08-19T14:40:25.640Z,39.52
2022-08-19T14:42:58.984Z,37.63
2022-08-19T14:45:29.388Z,38.27
2022-08-19T14:47:56.333Z,37.92
2022-08-19T14:50:23.420Z,38.78
2022-08-19T14:52:50.812Z,39.81
2022-08-19T14:55:18.592Z,39.22
2022-08-19T14:57:45.989Z,40.77
2022-08-19T15:00:13.714Z,39.28
2022-08-19T15:02:41.296Z,39.37
2022-08-19T15:05:08.491Z,39.47
2022-08-19T15:07:35.035Z,38.99
2022-08-19T15:10:01.958Z,39.97
2022-08-19T15:12:29.976Z,40.24
2022-08-19T15:14:57.208Z,37.10
2022-08-19T15:17:44.994Z,37.67
2022-08-19T15:20:13.587Z,37.21
2022-08-19T15:22:40.528Z,37.85
2022-08-19T15:25:11.545Z,39.39
2022-08-19T15:27:39.858Z,39.05
2022-08-19T15:30:08.049Z,37.65
2022-08-19T15:32:35.299Z,39.25
2022-08-19T15:35:01.883Z,38.86
2022-08-19T15:37:28.674Z,38.59
2022-08-19T15:39:55.330Z,39.53
2022-08-19T15:42:29.410Z,40.19
2022-08-19T15:44:58.260Z,40.08
2022-08-19T15:47:35.132Z,39.89
2022-08-19T15:50:12.753Z,39.58
2022-08-19T15:52:50.056Z,39.59
2022-08-19T15:55:29.929Z,40.08
2022-08-19T15:58:20.547Z,39.48
2022-08-19T16:00:57.395Z,39.71
2022-08-19T16:03:25.021Z,38.96
2022-08-19T16:05:53.476Z,39.49
2022-08-19T16:08:20.044Z,39.19
2022-08-19T16:10:46.781Z,38.72
2022-08-19T16:13:13.332Z,38.81
2022-08-19T16:15:40.109Z,38.41
2022-08-19T16:18:06.781Z,39.18
2022-08-19T16:20:35.590Z,37.99
2022-08-19T16:23:02.656Z,38.91
2022-08-19T16:25:29.468Z,39.00
2022-08-19T16:28:07.384Z,39.38
2022-08-19T16:30:35.961Z,39.49
2022-08-19T16:33:02.691Z,39.45
2022-08-19T16:35:29.503Z,38.67
2022-08-19T16:37:56.489Z,38.64
2022-08-19T16:40:23.313Z,38.77
2022-08-19T16:42:49.879Z,38.31
2022-08-19T16:45:16.637Z,38.59
2022-08-19T16:47:43.191Z,38.50
2022-08-19T16:50:09.940Z,39.63
2022-08-19T16:52:36.694Z,38.31
2022-08-19T16:55:05.332Z,39.35
2022-08-19T16:57:32.271Z,38.92
2022-08-19T16:59:59.454Z,37.86
2022-08-19T17:02:29.709Z,38.85
2022-08-19T17:04:59.053Z,37.39
2022-08-19T17:07:28.068Z,38.38
2022-08-19T17:09:55.992Z,38.60
2022-08-19T17:12:30.190Z,38.06
2022-08-19T17:14:57.627Z,37.93
2022-08-19T17:17:28.745Z,38.62
2022-08-19T17:19:55.827Z,39.37
2022-08-19T17:22:22.476Z,39.57
2022-08-19T17:24:49.347Z,39.65
2022-08-19T17:27:15.899Z,37.50
2022-08-19T17:29:46.757Z,40.32
2022-08-19T17:32:14.047Z,38.91
2022-08-19T17:34:40.744Z,39.92
2022-08-19T17:37:07.437Z,40.00
2022-08-19T17:39:39.010Z,40.03
2022-08-19T17:42:07.031Z,38.48
2022-08-19T17:44:35.172Z,38.41
2022-08-19T17:47:02.179Z,39.07
2022-08-19T17:49:28.726Z,39.38
2022-08-19T17:51:55.696Z,39.55
2022-08-19T17:54:22.251Z,39.42
2022-08-19T17:56:49.042Z,39.22
2022-08-19T17:59:16.761Z,39.08
2022-08-19T18:01:53.468Z,39.85
2022-08-19T18:04:22.714Z,41.30
2022-08-19T18:06:52.962Z,41.95
2022-08-19T18:09:24.045Z,40.73
2022-08-19T18:11:53.258Z,42.01
2022-08-19T18:14:22.613Z,41.79
2022-08-19T18:16:49.252Z,42.42
2022-08-19T18:19:16.427Z,42.33
2022-08-19T18:21:42.995Z,41.13
2022-08-19T18:24:09.604Z,42.20
2022-08-19T18:26:36.175Z,41.93
2022-08-19T18:29:03.139Z,41.90
2022-08-19T18:31:29.678Z,42.09
2022-08-19T18:33:56.429Z,43.21
2022-08-19T18:36:50.194Z,43.22
2022-08-19T18:39:09.865Z,43.80
2022-08-19T18:41:39.100Z,44.40
2022-08-19T18:44:05.692Z,44.44
2022-08-19T18:46:32.995Z,44.79
2022-08-19T18:49:03.513Z,44.72
2022-08-19T18:51:30.079Z,44.74
2022-08-19T18:53:56.909Z,45.14
2022-08-19T18:56:23.496Z,45.26
2022-08-19T18:58:50.280Z,44.85
2022-08-19T19:01:21.118Z,43.38
2022-08-19T19:03:51.591Z,44.54
2022-08-19T19:06:24.848Z,44.64
2022-08-19T19:08:53.417Z,45.24
2022-08-19T19:11:24.795Z,45.36
2022-08-19T19:13:52.136Z,45.36
2022-08-19T19:16:23.752Z,45.54
2022-08-19T19:18:51.019Z,44.99
2022-08-19T19:21:19.143Z,45.11
2022-08-19T19:23:46.000Z,45.25
2022-08-19T19:26:13.380Z,45.30
2022-08-19T19:28:41.767Z,45.61
2022-08-19T19:31:08.348Z,45.51
2022-08-19T19:33:34.937Z,45.80
2022-08-19T19:36:01.523Z,45.74
2022-08-19T19:38:28.361Z,45.75
2022-08-19T19:40:54.883Z,45.87
2022-08-19T19:43:21.647Z,45.79
2022-08-19T19:45:48.510Z,46.08
2022-08-19T19:48:15.659Z,46.10
2022-08-19T19:50:44.017Z,46.19
2022-08-19T19:53:11.119Z,46.29
2022-08-19T19:55:37.661Z,46.04
2022-08-19T19:58:04.370Z,46.29
2022-08-19T20:00:30.945Z,46.41
2022-08-19T20:02:57.538Z,46.06
2022-08-19T20:05:25.075Z,45.79
2022-08-19T20:07:54.559Z,46.05
2022-08-19T20:10:21.714Z,47.61
2022-08-19T20:12:48.491Z,47.99
2022-08-19T20:15:15.138Z,47.82
2022-08-19T20:17:41.792Z,47.81
2022-08-19T20:20:13.773Z,48.01
2022-08-19T20:22:41.733Z,48.34
2022-08-19T20:25:09.313Z,49.01
2022-08-19T20:27:39.854Z,49.30
2022-08-19T20:30:13.074Z,49.42
2022-08-19T20:32:46.321Z,49.15
2022-08-19T20:35:14.764Z,49.01
2022-08-19T20:37:41.763Z,49.65
2022-08-19T20:40:09.748Z,49.62
2022-08-19T20:42:39.707Z,49.57
2022-08-19T20:45:08.294Z,50.01
2022-08-19T20:47:45.078Z,50.87
2022-08-19T20:50:11.702Z,51.50
2022-08-19T20:52:39.140Z,51.04
2022-08-19T20:55:06.182Z,51.42
2022-08-19T20:57:32.893Z,51.53
2022-08-19T20:59:59.481Z,51.36
2022-08-19T21:02:26.280Z,51.19
2022-08-19T21:04:52.844Z,50.87
2022-08-19T21:07:25.627Z,51.35
2022-08-19T21:10:06.227Z,51.68
2022-08-19T21:12:32.815Z,51.85
2022-08-19T21:14:59.450Z,52.13
2022-08-19T21:17:26.090Z,51.78
2022-08-19T21:19:52.683Z,52.62
2022-08-19T21:22:19.236Z,52.39
2022-08-19T21:24:45.959Z,52.37
2022-08-19T21:27:12.533Z,52.43
2022-08-19T21:29:39.179Z,52.54
2022-08-19T21:32:05.995Z,52.77
2022-08-19T21:34:32.587Z,53.09
2022-08-19T21:36:59.150Z,53.63
2022-08-19T21:39:25.841Z,54.00
2022-08-19T21:41:52.424Z,54.14
2022-08-19T21:44:19.091Z,53.87
2022-08-19T21:46:45.781Z,53.93
2022-08-19T21:49:17.346Z,54.00
2022-08-19T21:51:43.998Z,54.48
2022-08-19T21:54:14.150Z,54.44
2022-08-19T21:56:41.852Z,54.48
2022-08-19T21:59:08.543Z,54.30
2022-08-19T22:01:35.165Z,53.85
2022-08-19T22:04:01.826Z,54.21
2022-08-19T22:06:28.461Z,54.14
2022-08-19T22:08:55.633Z,54.44
2022-08-19T22:11:24.233Z,54.25
2022-08-19T22:13:51.058Z,54.38
2022-08-19T22:16:17.885Z,53.87
2022-08-19T22:18:44.567Z,54.38
2022-08-19T22:21:12.319Z,54.71
2022-08-19T22:23:42.629Z,55.02
2022-08-19T22:26:09.287Z,55.36
2022-08-19T22:28:36.233Z,55.57
2022-08-19T22:31:03.419Z,56.00
2022-08-19T22:33:30.436Z,56.75
2022-08-19T22:35:57.040Z,57.37
2022-08-19T22:38:23.798Z,57.63
2022-08-19T22:40:52.396Z,56.92
2022-08-19T22:43:25.079Z,56.77
2022-08-19T22:45:53.675Z,57.44
2022-08-19T22:48:23.862Z,57.64
2022-08-19T22:50:51.894Z,57.15
2022-08-19T22:53:18.434Z,57.69
2022-08-19T22:55:45.173Z,58.49
2022-08-19T22:58:11.950Z,58.21
2022-08-19T23:00:38.625Z,58.33
2022-08-19T23:03:05.254Z,58.37
2022-08-19T23:05:31.949Z,58.91
2022-08-19T23:07:58.972Z,58.50
2022-08-19T23:10:27.980Z,58.14
2022-08-19T23:12:57.231Z,58.50
2022-08-19T23:15:26.541Z,58.33
2022-08-19T23:17:56.300Z,58.67
2022-08-19T23:20:24.865Z,58.53
2022-08-19T23:22:51.436Z,59.03
2022-08-19T23:25:22.502Z,59.46
2022-08-19T23:27:49.872Z,59.34
2022-08-19T23:30:16.548Z,58.74
2022-08-19T23:32:43.204Z,57.99
2022-08-19T23:35:09.829Z,58.66
2022-08-19T23:37:36.490Z,58.38
2022-08-19T23:40:05.836Z,58.50
2022-08-19T23:42:32.890Z,58.61
2022-08-19T23:45:01.567Z,59.14
2022-08-19T23:47:28.624Z,59.18
2022-08-19T23:49:56.439Z,59.28
2022-08-19T23:52:23.530Z,59.56
2022-08-19T23:54:50.090Z,59.41
2022-08-19T23:57:16.969Z,59.40
2022-08-19T23:59:44.062Z,59.88
